sensor_id;sensor_type;location;lat;lon;timestamp;pressure;altitude;pressure_sealevel;temperature;humidity
75681;BME280;64294;49.176;16.626;2023-05-10T00:00:15;99265.13;;;9.27;65.38
75681;BME280;64294;49.176;16.626;2023-05-10T00:02:40;99269.53;;;9.23;64.93
75681;BME280;64294;49.176;16.626;2023-05-10T00:05:06;99264.44;;;9.21;65.06
75681;BME280;64294;49.176;16.626;2023-05-10T00:07:32;99260.88;;;9.21;64.94
75681;BME280;64294;49.176;16.626;2023-05-10T00:09:57;99253.84;;;9.14;65.71
75681;BME280;64294;49.176;16.626;2023-05-10T00:12:22;99260.97;;;9.15;64.98
75681;BME280;64294;49.176;16.626;2023-05-10T00:14:48;99259.44;;;9.14;64.87
75681;BME280;64294;49.176;16.626;2023-05-10T00:17:13;99253.22;;;9.21;64.33
75681;BME280;64294;49.176;16.626;2023-05-10T00:19:38;99250.88;;;9.25;64.99
75681;BME280;64294;49.176;16.626;2023-05-10T00:22:04;99252.91;;;9.25;64.33
75681;BME280;64294;49.176;16.626;2023-05-10T00:24:29;99243.53;;;9.22;64.87
75681;BME280;64294;49.176;16.626;2023-05-10T00:26:55;99244.06;;;9.21;65.00
75681;BME280;64294;49.176;16.626;2023-05-10T00:29:20;99244.91;;;9.16;64.90
75681;BME280;64294;49.176;16.626;2023-05-10T00:31:45;99248.47;;;9.16;64.81
75681;BME280;64294;49.176;16.626;2023-05-10T00:34:11;99239.59;;;9.12;65.63
75681;BME280;64294;49.176;16.626;2023-05-10T00:36:36;99245.97;;;9.13;65.69
75681;BME280;64294;49.176;16.626;2023-05-10T00:39:02;99242.75;;;9.22;64.91
75681;BME280;64294;49.176;16.626;2023-05-10T00:41:29;99237.91;;;9.22;65.00
75681;BME280;64294;49.176;16.626;2023-05-10T00:43:56;99239.88;;;9.27;64.39
75681;BME280;64294;49.176;16.626;2023-05-10T00:46:22;99232.47;;;9.30;63.60
75681;BME280;64294;49.176;16.626;2023-05-10T00:48:47;99235.50;;;9.32;64.14
75681;BME280;64294;49.176;16.626;2023-05-10T00:51:13;99227.31;;;9.34;64.36
75681;BME280;64294;49.176;16.626;2023-05-10T00:53:40;99223.97;;;9.35;63.84
75681;BME280;64294;49.176;16.626;2023-05-10T00:56:05;99217.75;;;9.43;63.57
75681;BME280;64294;49.176;16.626;2023-05-10T00:58:31;99212.19;;;9.56;63.09
75681;BME280;64294;49.176;16.626;2023-05-10T01:00:57;99217.28;;;9.57;62.93
75681;BME280;64294;49.176;16.626;2023-05-10T01:03:23;99214.25;;;9.55;63.29
75681;BME280;64294;49.176;16.626;2023-05-10T01:05:50;99216.53;;;9.57;63.19
75681;BME280;64294;49.176;16.626;2023-05-10T01:08:15;99212.44;;;9.58;62.78
75681;BME280;64294;49.176;16.626;2023-05-10T01:10:41;99208.66;;;9.55;63.31
75681;BME280;64294;49.176;16.626;2023-05-10T01:13:07;99209.72;;;9.52;63.25
75681;BME280;64294;49.176;16.626;2023-05-10T01:15:33;99210.81;;;9.62;62.75
75681;BME280;64294;49.176;16.626;2023-05-10T01:18:00;99204.66;;;9.64;62.51
75681;BME280;64294;49.176;16.626;2023-05-10T01:20:27;99202.09;;;9.66;62.84
75681;BME280;64294;49.176;16.626;2023-05-10T01:33:55;99189.66;;;9.61;63.01
75681;BME280;64294;49.176;16.626;2023-05-10T01:36:31;99197.63;;;9.57;62.88
75681;BME280;64294;49.176;16.626;2023-05-10T01:42:14;99187.34;;;9.47;63.34
75681;BME280;64294;49.176;16.626;2023-05-10T01:47:46;99192.69;;;9.31;63.46
75681;BME280;64294;49.176;16.626;2023-05-10T01:50:20;99189.03;;;9.18;64.63
75681;BME280;64294;49.176;16.626;2023-05-10T01:52:51;99195.19;;;9.16;64.66
75681;BME280;64294;49.176;16.626;2023-05-10T01:55:21;99188.88;;;9.10;65.07
75681;BME280;64294;49.176;16.626;2023-05-10T01:57:55;99187.13;;;9.07;65.28
75681;BME280;64294;49.176;16.626;2023-05-10T02:00:23;99182.75;;;9.12;64.76
75681;BME280;64294;49.176;16.626;2023-05-10T02:02:50;99176.16;;;9.09;65.18
75681;BME280;64294;49.176;16.626;2023-05-10T02:05:17;99172.13;;;9.04;65.56
75681;BME280;64294;49.176;16.626;2023-05-10T02:07:44;99170.50;;;8.96;65.58
75681;BME280;64294;49.176;16.626;2023-05-10T02:10:11;99170.84;;;8.87;66.93
75681;BME280;64294;49.176;16.626;2023-05-10T02:12:41;99168.03;;;8.87;66.69
75681;BME280;64294;49.176;16.626;2023-05-10T02:15:07;99170.09;;;8.86;67.31
75681;BME280;64294;49.176;16.626;2023-05-10T02:17:35;99160.63;;;8.89;66.59
75681;BME280;64294;49.176;16.626;2023-05-10T02:20:01;99161.09;;;8.93;67.02
75681;BME280;64294;49.176;16.626;2023-05-10T02:22:29;99171.28;;;8.91;66.86
75681;BME280;64294;49.176;16.626;2023-05-10T02:24:55;99162.44;;;8.87;67.34
75681;BME280;64294;49.176;16.626;2023-05-10T02:27:23;99158.13;;;8.86;67.14
75681;BME280;64294;49.176;16.626;2023-05-10T02:29:51;99159.53;;;8.73;68.26
75681;BME280;64294;49.176;16.626;2023-05-10T02:32:17;99155.47;;;8.74;67.99
75681;BME280;64294;49.176;16.626;2023-05-10T02:34:44;99156.16;;;8.80;68.46
75681;BME280;64294;49.176;16.626;2023-05-10T02:37:13;99158.97;;;8.80;68.72
75681;BME280;64294;49.176;16.626;2023-05-10T02:39:40;99157.97;;;8.78;68.80
75681;BME280;64294;49.176;16.626;2023-05-10T02:42:14;99150.69;;;8.69;69.18
75681;BME280;64294;49.176;16.626;2023-05-10T02:44:41;99147.84;;;8.75;69.71
75681;BME280;64294;49.176;16.626;2023-05-10T02:47:07;99158.03;;;8.72;69.91
75681;BME280;64294;49.176;16.626;2023-05-10T02:49:32;99151.44;;;8.70;69.65
75681;BME280;64294;49.176;16.626;2023-05-10T02:52:01;99154.78;;;8.68;70.26
75681;BME280;64294;49.176;16.626;2023-05-10T02:54:32;99150.47;;;8.67;70.48
75681;BME280;64294;49.176;16.626;2023-05-10T02:57:00;99148.03;;;8.58;70.74
75681;BME280;64294;49.176;16.626;2023-05-10T02:59:28;99150.34;;;8.54;71.83
75681;BME280;64294;49.176;16.626;2023-05-10T03:01:53;99146.03;;;8.53;71.67
75681;BME280;64294;49.176;16.626;2023-05-10T03:04:19;99145.59;;;8.49;71.78
75681;BME280;64294;49.176;16.626;2023-05-10T03:06:44;99143.38;;;8.42;72.71
75681;BME280;64294;49.176;16.626;2023-05-10T03:09:10;99146.19;;;8.42;72.43
75681;BME280;64294;49.176;16.626;2023-05-10T03:11:47;99156.09;;;8.43;72.97
75681;BME280;64294;49.176;16.626;2023-05-10T03:14:34;99150.72;;;8.45;73.11
75681;BME280;64294;49.176;16.626;2023-05-10T03:17:15;99154.00;;;8.49;72.69
75681;BME280;64294;49.176;16.626;2023-05-10T03:19:48;99149.91;;;8.50;72.80
75681;BME280;64294;49.176;16.626;2023-05-10T03:22:23;99154.06;;;8.43;73.94
75681;BME280;64294;49.176;16.626;2023-05-10T03:24:49;99150.50;;;8.43;73.79
75681;BME280;64294;49.176;16.626;2023-05-10T03:27:17;99147.03;;;8.37;74.92
75681;BME280;64294;49.176;16.626;2023-05-10T03:29:44;99145.13;;;8.45;75.01
75681;BME280;64294;49.176;16.626;2023-05-10T03:32:11;99144.69;;;8.41;75.40
75681;BME280;64294;49.176;16.626;2023-05-10T03:34:42;99133.03;;;8.37;75.49
75681;BME280;64294;49.176;16.626;2023-05-10T03:37:08;99136.59;;;8.32;76.25
75681;BME280;64294;49.176;16.626;2023-05-10T03:39:34;99145.72;;;8.38;76.38
75681;BME280;64294;49.176;16.626;2023-05-10T03:41:59;99151.84;;;8.36;76.52
75681;BME280;64294;49.176;16.626;2023-05-10T03:44:24;99150.50;;;8.43;76.49
75681;BME280;64294;49.176;16.626;2023-05-10T03:46:50;99151.88;;;8.55;75.97
75681;BME280;64294;49.176;16.626;2023-05-10T03:49:15;99141.44;;;8.56;76.26
75681;BME280;64294;49.176;16.626;2023-05-10T03:51:41;99149.78;;;8.61;76.43
75681;BME280;64294;49.176;16.626;2023-05-10T03:54:06;99144.31;;;8.69;76.31
75681;BME280;64294;49.176;16.626;2023-05-10T03:56:31;99150.09;;;8.76;75.93
75681;BME280;64294;49.176;16.626;2023-05-10T03:58:57;99156.00;;;8.92;77.78
75681;BME280;64294;49.176;16.626;2023-05-10T04:01:23;99158.97;;;9.18;76.62
75681;BME280;64294;49.176;16.626;2023-05-10T04:03:48;99155.94;;;9.16;75.58
75681;BME280;64294;49.176;16.626;2023-05-10T04:06:14;99158.78;;;9.29;74.89
75681;BME280;64294;49.176;16.626;2023-05-10T04:08:39;99168.13;;;9.19;75.29
75681;BME280;64294;49.176;16.626;2023-05-10T04:11:11;99166.06;;;9.19;74.92
75681;BME280;64294;49.176;16.626;2023-05-10T04:13:37;99164.34;;;9.16;75.36
75681;BME280;64294;49.176;16.626;2023-05-10T04:16:03;99174.72;;;9.21;76.00
75681;BME280;64294;49.176;16.626;2023-05-10T04:18:29;99170.19;;;9.18;75.93
75681;BME280;64294;49.176;16.626;2023-05-10T04:20:55;99176.97;;;9.23;75.81
75681;BME280;64294;49.176;16.626;2023-05-10T04:23:20;99180.78;;;9.25;76.16
75681;BME280;64294;49.176;16.626;2023-05-10T04:25:46;99175.38;;;9.27;75.73
75681;BME280;64294;49.176;16.626;2023-05-10T04:28:11;99175.09;;;9.31;75.80
75681;BME280;64294;49.176;16.626;2023-05-10T04:30:37;99184.41;;;9.39;76.10
75681;BME280;64294;49.176;16.626;2023-05-10T04:33:02;99183.00;;;9.46;76.51
75681;BME280;64294;49.176;16.626;2023-05-10T04:35:28;99183.63;;;9.57;76.17
75681;BME280;64294;49.176;16.626;2023-05-10T04:37:54;99188.38;;;9.62;76.22
75681;BME280;64294;49.176;16.626;2023-05-10T04:40:20;99184.81;;;9.62;75.74
75681;BME280;64294;49.176;16.626;2023-05-10T04:42:45;99187.78;;;9.69;75.46
75681;BME280;64294;49.176;16.626;2023-05-10T04:45:11;99183.78;;;9.78;76.18
75681;BME280;64294;49.176;16.626;2023-05-10T04:47:36;99190.53;;;9.88;76.17
75681;BME280;64294;49.176;16.626;2023-05-10T04:50:03;99188.53;;;9.83;75.94
75681;BME280;64294;49.176;16.626;2023-05-10T04:52:28;99184.03;;;9.93;76.10
75681;BME280;64294;49.176;16.626;2023-05-10T04:54:54;99188.81;;;9.98;75.71
75681;BME280;64294;49.176;16.626;2023-05-10T04:57:19;99181.94;;;10.13;75.47
75681;BME280;64294;49.176;16.626;2023-05-10T04:59:44;99183.00;;;10.10;75.48
75681;BME280;64294;49.176;16.626;2023-05-10T05:02:10;99178.19;;;10.23;75.60
75681;BME280;64294;49.176;16.626;2023-05-10T05:04:35;99183.44;;;10.14;75.03
75681;BME280;64294;49.176;16.626;2023-05-10T05:07:01;99178.41;;;10.25;75.32
75681;BME280;64294;49.176;16.626;2023-05-10T05:09:26;99182.28;;;10.22;75.17
75681;BME280;64294;49.176;16.626;2023-05-10T05:11:51;99176.06;;;10.43;74.92
75681;BME280;64294;49.176;16.626;2023-05-10T05:14:17;99181.88;;;10.58;74.22
75681;BME280;64294;49.176;16.626;2023-05-10T05:16:42;99172.59;;;10.63;74.31
75681;BME280;64294;49.176;16.626;2023-05-10T05:19:08;99194.94;;;10.55;74.35
75681;BME280;64294;49.176;16.626;2023-05-10T05:21:33;99182.63;;;10.58;73.90
75681;BME280;64294;49.176;16.626;2023-05-10T05:23:58;99170.41;;;10.69;74.43
75681;BME280;64294;49.176;16.626;2023-05-10T05:26:26;99160.88;;;10.85;73.71
75681;BME280;64294;49.176;16.626;2023-05-10T05:28:51;99180.00;;;11.00;73.78
75681;BME280;64294;49.176;16.626;2023-05-10T05:31:19;99189.13;;;11.27;71.95
75681;BME280;64294;49.176;16.626;2023-05-10T05:33:45;99178.16;;;11.37;71.59
75681;BME280;64294;49.176;16.626;2023-05-10T05:36:10;99172.22;;;11.61;71.47
75681;BME280;64294;49.176;16.626;2023-05-10T05:38:36;99179.25;;;11.34;71.75
75681;BME280;64294;49.176;16.626;2023-05-10T05:41:01;99192.25;;;11.23;72.20
75681;BME280;64294;49.176;16.626;2023-05-10T05:43:27;99163.16;;;11.55;72.05
75681;BME280;64294;49.176;16.626;2023-05-10T05:45:53;99170.94;;;11.83;71.22
75681;BME280;64294;49.176;16.626;2023-05-10T05:48:19;99180.88;;;12.05;70.10
75681;BME280;64294;49.176;16.626;2023-05-10T05:50:44;99179.97;;;12.31;69.22
75681;BME280;64294;49.176;16.626;2023-05-10T05:53:10;99189.72;;;12.30;68.89
75681;BME280;64294;49.176;16.626;2023-05-10T05:55:36;99182.91;;;12.25;69.45
75681;BME280;64294;49.176;16.626;2023-05-10T05:58:01;99185.59;;;12.59;68.27
75681;BME280;64294;49.176;16.626;2023-05-10T06:00:27;99188.00;;;12.55;68.10
75681;BME280;64294;49.176;16.626;2023-05-10T06:02:52;99184.41;;;12.47;68.27
75681;BME280;64294;49.176;16.626;2023-05-10T06:05:18;99179.56;;;12.55;68.97
75681;BME280;64294;49.176;16.626;2023-05-10T06:07:43;99167.94;;;13.02;67.26
75681;BME280;64294;49.176;16.626;2023-05-10T06:10:09;99181.47;;;13.40;66.05
75681;BME280;64294;49.176;16.626;2023-05-10T06:12:35;99180.59;;;13.91;64.12
75681;BME280;64294;49.176;16.626;2023-05-10T06:15:00;99172.13;;;14.06;63.32
75681;BME280;64294;49.176;16.626;2023-05-10T06:17:26;99183.41;;;14.21;62.76
75681;BME280;64294;49.176;16.626;2023-05-10T06:19:52;99175.59;;;14.91;59.63
75681;BME280;64294;49.176;16.626;2023-05-10T06:22:18;99172.03;;;16.38;55.13
75681;BME280;64294;49.176;16.626;2023-05-10T06:24:43;99179.88;;;17.16;52.57
75681;BME280;64294;49.176;16.626;2023-05-10T06:27:09;99165.88;;;18.84;47.56
75681;BME280;64294;49.176;16.626;2023-05-10T06:29:34;99183.00;;;19.73;43.93
75681;BME280;64294;49.176;16.626;2023-05-10T06:32:00;99176.81;;;20.69;42.59
75681;BME280;64294;49.176;16.626;2023-05-10T06:34:25;99171.44;;;21.18;41.14
75681;BME280;64294;49.176;16.626;2023-05-10T06:36:51;99170.41;;;20.80;41.06
75681;BME280;64294;49.176;16.626;2023-05-10T06:39:16;99170.72;;;20.96;41.17
75681;BME280;64294;49.176;16.626;2023-05-10T06:41:42;99189.91;;;20.41;41.58
75681;BME280;64294;49.176;16.626;2023-05-10T06:44:07;99196.97;;;20.09;43.09
75681;BME280;64294;49.176;16.626;2023-05-10T06:46:33;99178.84;;;20.78;41.07
75681;BME280;64294;49.176;16.626;2023-05-10T06:48:59;99173.59;;;19.60;44.15
75681;BME280;64294;49.176;16.626;2023-05-10T06:51:24;99220.25;;;19.26;44.89
75681;BME280;64294;49.176;16.626;2023-05-10T06:53:50;99197.16;;;18.74;46.75
75681;BME280;64294;49.176;16.626;2023-05-10T06:56:15;99190.59;;;19.00;46.44
75681;BME280;64294;49.176;16.626;2023-05-10T06:58:40;99196.72;;;20.26;42.77
75681;BME280;64294;49.176;16.626;2023-05-10T07:01:06;99172.19;;;21.40;39.84
75681;BME280;64294;49.176;16.626;2023-05-10T07:03:31;99174.78;;;21.48;40.50
75681;BME280;64294;49.176;16.626;2023-05-10T07:06:01;99197.81;;;19.90;42.56
75681;BME280;64294;49.176;16.626;2023-05-10T07:08:29;99181.34;;;22.30;37.84
75681;BME280;64294;49.176;16.626;2023-05-10T07:11:05;99176.59;;;23.07;36.00
75681;BME280;64294;49.176;16.626;2023-05-10T07:13:33;99175.50;;;22.40;37.41
75681;BME280;64294;49.176;16.626;2023-05-10T07:16:00;99179.97;;;21.06;39.40
75681;BME280;64294;49.176;16.626;2023-05-10T07:18:27;99181.25;;;22.04;38.47
75681;BME280;64294;49.176;16.626;2023-05-10T07:20:53;99183.72;;;21.98;37.47
75681;BME280;64294;49.176;16.626;2023-05-10T07:23:18;99184.03;;;20.49;40.85
75681;BME280;64294;49.176;16.626;2023-05-10T07:25:48;99186.53;;;21.63;39.89
75681;BME280;64294;49.176;16.626;2023-05-10T07:28:15;99183.75;;;23.19;36.05
75681;BME280;64294;49.176;16.626;2023-05-10T07:30:42;99189.19;;;21.16;39.48
75681;BME280;64294;49.176;16.626;2023-05-10T07:33:08;99179.06;;;22.63;36.63
75681;BME280;64294;49.176;16.626;2023-05-10T07:35:34;99183.91;;;21.23;39.91
75681;BME280;64294;49.176;16.626;2023-05-10T07:38:00;99180.25;;;22.35;37.82
75681;BME280;64294;49.176;16.626;2023-05-10T07:40:26;99174.09;;;23.01;36.40
75681;BME280;64294;49.176;16.626;2023-05-10T07:42:51;99187.22;;;24.08;33.82
75681;BME280;64294;49.176;16.626;2023-05-10T07:45:17;99184.94;;;23.79;34.60
75681;BME280;64294;49.176;16.626;2023-05-10T07:47:43;99175.84;;;24.79;32.41
75681;BME280;64294;49.176;16.626;2023-05-10T07:50:08;99186.81;;;24.00;32.96
75681;BME280;64294;49.176;16.626;2023-05-10T07:52:33;99169.41;;;25.37;31.01
75681;BME280;64294;49.176;16.626;2023-05-10T07:54:59;99191.03;;;22.60;34.36
75681;BME280;64294;49.176;16.626;2023-05-10T07:57:24;99176.00;;;22.96;35.54
75681;BME280;64294;49.176;16.626;2023-05-10T07:59:50;99175.63;;;23.92;33.22
75681;BME280;64294;49.176;16.626;2023-05-10T08:02:15;99185.94;;;23.58;34.42
75681;BME280;64294;49.176;16.626;2023-05-10T08:04:41;99216.97;;;22.99;34.23
75681;BME280;64294;49.176;16.626;2023-05-10T08:07:06;99178.25;;;22.38;36.19
75681;BME280;64294;49.176;16.626;2023-05-10T08:09:32;99175.13;;;24.23;31.68
75681;BME280;64294;49.176;16.626;2023-05-10T08:11:57;99184.38;;;24.49;31.88
75681;BME280;64294;49.176;16.626;2023-05-10T08:14:24;99178.75;;;25.08;30.88
75681;BME280;64294;49.176;16.626;2023-05-10T08:16:49;99181.25;;;24.86;31.07
75681;BME280;64294;49.176;16.626;2023-05-10T08:19:15;99170.97;;;21.66;37.41
75681;BME280;64294;49.176;16.626;2023-05-10T08:21:44;99171.53;;;22.33;35.79
75681;BME280;64294;49.176;16.626;2023-05-10T08:24:09;99168.97;;;24.56;33.09
75681;BME280;64294;49.176;16.626;2023-05-10T08:26:35;99175.53;;;22.77;35.77
75681;BME280;64294;49.176;16.626;2023-05-10T08:29:00;99177.78;;;20.00;40.82
75681;BME280;64294;49.176;16.626;2023-05-10T08:31:26;99181.66;;;20.05;41.55
75681;BME280;64294;49.176;16.626;2023-05-10T08:33:51;99178.50;;;20.63;41.20
75681;BME280;64294;49.176;16.626;2023-05-10T08:36:18;99191.66;;;19.84;42.56
75681;BME280;64294;49.176;16.626;2023-05-10T08:38:53;99179.13;;;22.05;38.11
75681;BME280;64294;49.176;16.626;2023-05-10T08:41:20;99187.22;;;22.09;36.08
75681;BME280;64294;49.176;16.626;2023-05-10T08:43:47;99182.44;;;19.64;42.22
75681;BME280;64294;49.176;16.626;2023-05-10T08:46:17;99179.44;;;20.34;40.48
75681;BME280;64294;49.176;16.626;2023-05-10T08:48:44;99167.25;;;21.64;38.60
75681;BME280;64294;49.176;16.626;2023-05-10T08:51:13;99180.16;;;21.20;38.47
75681;BME280;64294;49.176;16.626;2023-05-10T08:53:39;99184.66;;;20.07;41.39
75681;BME280;64294;49.176;16.626;2023-05-10T08:56:04;99182.66;;;21.70;38.87
75681;BME280;64294;49.176;16.626;2023-05-10T08:58:31;99181.69;;;21.00;39.33
75681;BME280;64294;49.176;16.626;2023-05-10T09:00:57;99172.38;;;23.72;34.25
75681;BME280;64294;49.176;16.626;2023-05-10T09:03:23;99175.81;;;23.43;34.85
75681;BME280;64294;49.176;16.626;2023-05-10T09:05:49;99192.94;;;22.09;35.99
75681;BME280;64294;49.176;16.626;2023-05-10T09:08:15;99188.44;;;23.01;33.89
75681;BME280;64294;49.176;16.626;2023-05-10T09:10:43;99185.72;;;23.29;33.05
75681;BME280;64294;49.176;16.626;2023-05-10T09:13:10;99189.69;;;24.68;31.20
75681;BME280;64294;49.176;16.626;2023-05-10T09:15:36;99183.63;;;24.07;32.34
75681;BME280;64294;49.176;16.626;2023-05-10T09:18:02;99171.53;;;23.70;32.28
75681;BME280;64294;49.176;16.626;2023-05-10T09:20:28;99182.31;;;22.70;34.84
75681;BME280;64294;49.176;16.626;2023-05-10T09:22:53;99209.13;;;24.15;32.02
75681;BME280;64294;49.176;16.626;2023-05-10T09:25:19;99180.38;;;21.12;36.94
75681;BME280;64294;49.176;16.626;2023-05-10T09:27:46;99201.94;;;21.25;36.54
75681;BME280;64294;49.176;16.626;2023-05-10T09:30:25;99183.72;;;21.98;35.38
75681;BME280;64294;49.176;16.626;2023-05-10T09:32:51;99176.03;;;22.13;35.51
75681;BME280;64294;49.176;16.626;2023-05-10T09:35:19;99185.13;;;24.50;31.80
75681;BME280;64294;49.176;16.626;2023-05-10T09:37:47;99179.94;;;24.46;30.01
75681;BME280;64294;49.176;16.626;2023-05-10T09:40:15;99180.16;;;23.44;31.51
75681;BME280;64294;49.176;16.626;2023-05-10T09:42:55;99188.28;;;23.11;33.54
75681;BME280;64294;49.176;16.626;2023-05-10T09:45:26;99173.53;;;24.48;31.15
75681;BME280;64294;49.176;16.626;2023-05-10T09:47:52;99186.50;;;23.17;32.19
75681;BME280;64294;49.176;16.626;2023-05-10T09:50:18;99169.78;;;24.04;31.62
75681;BME280;64294;49.176;16.626;2023-05-10T09:52:58;99178.03;;;23.70;32.55
75681;BME280;64294;49.176;16.626;2023-05-10T09:55:26;99167.38;;;25.55;29.22
75681;BME280;64294;49.176;16.626;2023-05-10T09:58:02;99180.56;;;23.64;32.38
75681;BME280;64294;49.176;16.626;2023-05-10T10:00:34;99183.81;;;21.77;35.02
75681;BME280;64294;49.176;16.626;2023-05-10T10:03:01;99176.25;;;22.40;34.34
75681;BME280;64294;49.176;16.626;2023-05-10T10:05:34;99172.84;;;20.32;38.57
75681;BME280;64294;49.176;16.626;2023-05-10T10:08:02;99160.16;;;20.66;37.66
75681;BME280;64294;49.176;16.626;2023-05-10T10:10:28;99166.97;;;21.48;36.80
75681;BME280;64294;49.176;16.626;2023-05-10T10:12:55;99174.00;;;22.27;35.45
75681;BME280;64294;49.176;16.626;2023-05-10T10:15:21;99171.50;;;21.86;35.97
75681;BME280;64294;49.176;16.626;2023-05-10T10:17:48;99170.16;;;22.94;35.24
75681;BME280;64294;49.176;16.626;2023-05-10T10:20:15;99166.78;;;22.38;35.43
75681;BME280;64294;49.176;16.626;2023-05-10T10:22:40;99161.91;;;21.58;35.75
75681;BME280;64294;49.176;16.626;2023-05-10T10:25:07;99184.91;;;20.20;39.10
75681;BME280;64294;49.176;16.626;2023-05-10T10:35:29;99153.50;;;20.73;37.69
75681;BME280;64294;49.176;16.626;2023-05-10T10:37:55;99166.41;;;19.40;40.02
75681;BME280;64294;49.176;16.626;2023-05-10T10:40:32;99155.78;;;21.52;36.63
75681;BME280;64294;49.176;16.626;2023-05-10T10:42:58;99146.25;;;21.94;35.47
75681;BME280;64294;49.176;16.626;2023-05-10T10:45:43;99148.75;;;20.66;36.45
75681;BME280;64294;49.176;16.626;2023-05-10T10:48:23;99139.38;;;21.08;36.48
75681;BME280;64294;49.176;16.626;2023-05-10T10:50:56;99169.56;;;21.11;36.09
75681;BME280;64294;49.176;16.626;2023-05-10T10:53:21;99157.13;;;19.90;38.92
75681;BME280;64294;49.176;16.626;2023-05-10T10:55:47;99160.03;;;19.71;39.36
75681;BME280;64294;49.176;16.626;2023-05-10T10:58:29;99135.84;;;20.98;37.40
75681;BME280;64294;49.176;16.626;2023-05-10T11:03:38;99138.09;;;21.32;36.92
75681;BME280;64294;49.176;16.626;2023-05-10T11:06:03;99143.19;;;22.14;33.86
75681;BME280;64294;49.176;16.626;2023-05-10T11:08:32;99135.34;;;23.51;31.87
75681;BME280;64294;49.176;16.626;2023-05-10T11:16:35;99139.47;;;21.31;35.96
75681;BME280;64294;49.176;16.626;2023-05-10T11:19:01;99140.00;;;23.19;33.44
75681;BME280;64294;49.176;16.626;2023-05-10T11:21:28;99157.13;;;23.81;29.82
75681;BME280;64294;49.176;16.626;2023-05-10T11:23:57;99131.34;;;22.68;32.74
75681;BME280;64294;49.176;16.626;2023-05-10T11:26:32;99145.50;;;21.94;34.91
75681;BME280;64294;49.176;16.626;2023-05-10T11:28:57;99144.66;;;23.63;31.54
75681;BME280;64294;49.176;16.626;2023-05-10T11:31:27;99150.00;;;23.18;31.51
75681;BME280;64294;49.176;16.626;2023-05-10T11:33:58;99132.38;;;22.49;33.40
75681;BME280;64294;49.176;16.626;2023-05-10T11:36:26;99132.44;;;22.02;34.72
75681;BME280;64294;49.176;16.626;2023-05-10T11:38:52;99146.75;;;22.02;34.00
75681;BME280;64294;49.176;16.626;2023-05-10T11:41:18;99133.94;;;21.80;34.55
75681;BME280;64294;49.176;16.626;2023-05-10T11:43:48;99122.00;;;23.05;32.26
75681;BME280;64294;49.176;16.626;2023-05-10T11:46:14;99142.25;;;23.85;30.69
75681;BME280;64294;49.176;16.626;2023-05-10T11:48:41;99132.78;;;23.43;31.89
75681;BME280;64294;49.176;16.626;2023-05-10T11:51:10;99136.88;;;23.26;32.20
75681;BME280;64294;49.176;16.626;2023-05-10T11:53:36;99135.06;;;22.33;33.13
75681;BME280;64294;49.176;16.626;2023-05-10T11:56:09;99130.28;;;20.45;36.43
75681;BME280;64294;49.176;16.626;2023-05-10T11:58:36;99128.25;;;20.91;35.93
75681;BME280;64294;49.176;16.626;2023-05-10T12:01:03;99127.66;;;21.25;35.91
75681;BME280;64294;49.176;16.626;2023-05-10T12:03:30;99168.47;;;22.66;32.36
75681;BME280;64294;49.176;16.626;2023-05-10T12:05:56;99122.13;;;21.97;34.31
75681;BME280;64294;49.176;16.626;2023-05-10T12:08:23;99118.88;;;21.80;34.93
75681;BME280;64294;49.176;16.626;2023-05-10T12:10:49;99134.44;;;22.00;34.69
75681;BME280;64294;49.176;16.626;2023-05-10T12:13:15;99119.38;;;21.20;35.96
75681;BME280;64294;49.176;16.626;2023-05-10T12:15:41;99128.94;;;20.37;38.05
75681;BME280;64294;49.176;16.626;2023-05-10T12:18:11;99149.22;;;19.79;39.60
75681;BME280;64294;49.176;16.626;2023-05-10T12:20:37;99136.47;;;19.20;39.46
75681;BME280;64294;49.176;16.626;2023-05-10T12:23:03;99124.31;;;19.70;39.16
75681;BME280;64294;49.176;16.626;2023-05-10T12:25:33;99130.38;;;19.95;38.24
75681;BME280;64294;49.176;16.626;2023-05-10T12:28:02;99134.09;;;20.29;38.06
75681;BME280;64294;49.176;16.626;2023-05-10T12:30:29;99141.97;;;20.18;37.51
75681;BME280;64294;49.176;16.626;2023-05-10T12:33:15;99142.03;;;19.78;39.06
75681;BME280;64294;49.176;16.626;2023-05-10T12:35:48;99130.56;;;20.18;38.39
75681;BME280;64294;49.176;16.626;2023-05-10T12:38:29;99126.63;;;21.21;36.63
75681;BME280;64294;49.176;16.626;2023-05-10T12:41:02;99122.97;;;20.54;37.38
75681;BME280;64294;49.176;16.626;2023-05-10T12:43:28;99145.59;;;19.28;39.29
75681;BME280;64294;49.176;16.626;2023-05-10T12:45:53;99132.31;;;18.82;40.48
75681;BME280;64294;49.176;16.626;2023-05-10T12:48:19;99122.97;;;19.11;40.32
75681;BME280;64294;49.176;16.626;2023-05-10T12:50:45;99129.59;;;19.03;40.47
75681;BME280;64294;49.176;16.626;2023-05-10T12:53:10;99131.31;;;19.88;39.35
75681;BME280;64294;49.176;16.626;2023-05-10T12:55:36;99117.53;;;20.37;38.62
75681;BME280;64294;49.176;16.626;2023-05-10T12:58:01;99114.34;;;20.42;39.54
75681;BME280;64294;49.176;16.626;2023-05-10T13:00:27;99134.53;;;19.73;39.71
75681;BME280;64294;49.176;16.626;2023-05-10T13:02:52;99122.97;;;19.71;39.10
75681;BME280;64294;49.176;16.626;2023-05-10T13:05:18;99130.66;;;19.99;39.85
75681;BME280;64294;49.176;16.626;2023-05-10T13:07:43;99125.31;;;19.84;39.15
75681;BME280;64294;49.176;16.626;2023-05-10T13:10:09;99116.53;;;20.01;38.38
75681;BME280;64294;49.176;16.626;2023-05-10T13:12:35;99112.19;;;20.00;38.97
75681;BME280;64294;49.176;16.626;2023-05-10T13:15:01;99128.72;;;19.51;39.50
75681;BME280;64294;49.176;16.626;2023-05-10T13:17:28;99118.16;;;19.13;40.00
75681;BME280;64294;49.176;16.626;2023-05-10T13:19:54;99111.25;;;19.26;40.08
75681;BME280;64294;49.176;16.626;2023-05-10T13:22:19;99101.03;;;19.32;39.92
75681;BME280;64294;49.176;16.626;2023-05-10T13:24:45;99106.03;;;19.13;39.97